sensor_id;sensor_type;location;lat;lon;timestamp;P1;durP1;ratioP1;P2;durP2;ratioP2
39294;SDS011;52361;52.100;5.248;2023-07-16T00:01:25;3.2;;;1.0;;
39294;SDS011;52361;52.100;5.248;2023-07-16T00:03:02;1.7;;;0.8;;
39294;SDS011;52361;52.100;5.248;2023-07-16T00:06:16;3.8;;;0.9;;
39294;SDS011;52361;52.100;5.248;2023-07-16T00:07:52;4.5;;;0.9;;
39294;SDS011;52361;52.100;5.248;2023-07-16T00:09:28;2.21;;;1.0;;
39294;SDS011;52361;52.100;5.248;2023-07-16T00:12:42;4.0;;;1.0;;
39294;SDS011;52361;52.100;5.248;2023-07-16T00:14:19;1.2;;;0.9;;
39294;SDS011;52361;52.100;5.248;2023-07-16T00:15:56;1.4;;;0.8;;
39294;SDS011;52361;52.100;5.248;2023-07-16T00:17:33;2.21;;;1.11;;
39294;SDS011;52361;52.100;5.248;2023-07-16T00:20:47;5.2;;;1.5;;
39294;SDS011;52361;52.100;5.248;2023-07-16T00:22:23;6.8;;;1.4;;
39294;SDS011;52361;52.100;5.248;2023-07-16T00:24:00;3.0;;;1.11;;
39294;SDS011;52361;52.100;5.248;2023-07-16T00:27:13;2.21;;;0.9;;
39294;SDS011;52361;52.100;5.248;2023-07-16T00:28:51;3.9;;;1.3;;
39294;SDS011;52361;52.100;5.248;2023-07-16T00:30:28;1.6;;;1.0;;
39294;SDS011;52361;52.100;5.248;2023-07-16T00:33:41;2.7;;;1.0;;
39294;SDS011;52361;52.100;5.248;2023-07-16T00:35:17;2.4;;;1.2;;
39294;SDS011;52361;52.100;5.248;2023-07-16T00:36:53;3.2;;;1.4;;
39294;SDS011;52361;52.100;5.248;2023-07-16T00:38:29;1.11;;;1.0;;
39294;SDS011;52361;52.100;5.248;2023-07-16T00:41:44;3.4;;;1.6;;
39294;SDS011;52361;52.100;5.248;2023-07-16T00:43:21;3.6;;;1.0;;
39294;SDS011;52361;52.100;5.248;2023-07-16T00:44:58;1.7;;;1.2;;
39294;SDS011;52361;52.100;5.248;2023-07-16T00:48:12;2.9;;;1.4;;
39294;SDS011;52361;52.100;5.248;2023-07-16T00:49:49;4.1;;;1.4;;
39294;SDS011;52361;52.100;5.248;2023-07-16T00:51:26;3.3;;;1.11;;
39294;SDS011;52361;52.100;5.248;2023-07-16T00:53:04;3.6;;;1.7;;
39294;SDS011;52361;52.100;5.248;2023-07-16T00:56:18;3.7;;;1.8;;
39294;SDS011;52361;52.100;5.248;2023-07-16T00:57:55;4.2;;;1.5;;
39294;SDS011;52361;52.100;5.248;2023-07-16T00:59:38;5.11;;;1.7;;
39294;SDS011;52361;52.100;5.248;2023-07-16T01:02:51;3.0;;;1.2;;
39294;SDS011;52361;52.100;5.248;2023-07-16T01:04:28;4.0;;;1.6;;
39294;SDS011;52361;52.100;5.248;2023-07-16T01:06:07;1.6;;;0.8;;
39294;SDS011;52361;52.100;5.248;2023-07-16T01:07:53;3.8;;;1.2;;
39294;SDS011;52361;52.100;5.248;2023-07-16T01:11:17;2.1;;;1.11;;
39294;SDS011;52361;52.100;5.248;2023-07-16T01:12:55;5.7;;;1.2;;
39294;SDS011;52361;52.100;5.248;2023-07-16T01:14:33;6.0;;;1.6;;
39294;SDS011;52361;52.100;5.248;2023-07-16T01:16:17;3.8;;;1.6;;
39294;SDS011;52361;52.100;5.248;2023-07-16T01:21:08;2.0;;;1.4;;
39294;SDS011;52361;52.100;5.248;2023-07-16T01:23:05;1.6;;;1.5;;
39294;SDS011;52361;52.100;5.248;2023-07-16T01:25:10;4.61;;;1.4;;
39294;SDS011;52361;52.100;5.248;2023-07-16T01:27:16;3.9;;;1.6;;
39294;SDS011;52361;52.100;5.248;2023-07-16T01:29:21;5.3;;;1.5;;
39294;SDS011;52361;52.100;5.248;2023-07-16T01:31:05;2.31;;;1.3;;
39294;SDS011;52361;52.100;5.248;2023-07-16T01:34:22;6.3;;;1.5;;
39294;SDS011;52361;52.100;5.248;2023-07-16T01:36:02;3.2;;;1.2;;
39294;SDS011;52361;52.100;5.248;2023-07-16T01:37:39;2.21;;;1.4;;
39294;SDS011;52361;52.100;5.248;2023-07-16T01:39:16;2.5;;;1.7;;
39294;SDS011;52361;52.100;5.248;2023-07-16T01:42:29;2.1;;;1.5;;
39294;SDS011;52361;52.100;5.248;2023-07-16T01:44:05;8.1;;;2.5;;
39294;SDS011;52361;52.100;5.248;2023-07-16T01:45:42;2.1;;;1.5;;
39294;SDS011;52361;52.100;5.248;2023-07-16T01:49:07;9.6;;;1.5;;
39294;SDS011;52361;52.100;5.248;2023-07-16T01:50:43;3.2;;;1.7;;
39294;SDS011;52361;52.100;5.248;2023-07-16T01:52:20;2.0;;;0.9;;
39294;SDS011;52361;52.100;5.248;2023-07-16T01:53:58;4.7;;;1.6;;
39294;SDS011;52361;52.100;5.248;2023-07-16T01:57:11;3.8;;;1.8;;
39294;SDS011;52361;52.100;5.248;2023-07-16T01:58:47;7.4;;;1.4;;
39294;SDS011;52361;52.100;5.248;2023-07-16T02:00:24;4.61;;;1.4;;
39294;SDS011;52361;52.100;5.248;2023-07-16T02:03:38;3.5;;;1.2;;
39294;SDS011;52361;52.100;5.248;2023-07-16T02:05:15;2.8;;;1.4;;
39294;SDS011;52361;52.100;5.248;2023-07-16T02:06:52;3.4;;;1.4;;
39294;SDS011;52361;52.100;5.248;2023-07-16T02:08:28;6.1;;;2.21;;
39294;SDS011;52361;52.100;5.248;2023-07-16T02:11:42;6.1;;;2.21;;
39294;SDS011;52361;52.100;5.248;2023-07-16T02:13:19;4.0;;;2.1;;
39294;SDS011;52361;52.100;5.248;2023-07-16T02:14:56;5.7;;;1.7;;
39294;SDS011;52361;52.100;5.248;2023-07-16T02:18:08;3.8;;;1.6;;
39294;SDS011;52361;52.100;5.248;2023-07-16T02:19:46;3.1;;;1.5;;
39294;SDS011;52361;52.100;5.248;2023-07-16T02:21:22;4.7;;;1.7;;
39294;SDS011;52361;52.100;5.248;2023-07-16T02:22:59;5.5;;;1.8;;
39294;SDS011;52361;52.100;5.248;2023-07-16T02:26:12;7.0;;;2.4;;
39294;SDS011;52361;52.100;5.248;2023-07-16T02:27:49;5.9;;;2.21;;
39294;SDS011;52361;52.100;5.248;2023-07-16T02:29:25;8.4;;;2.8;;
39294;SDS011;52361;52.100;5.248;2023-07-16T02:32:39;2.6;;;1.3;;
39294;SDS011;52361;52.100;5.248;2023-07-16T02:34:15;4.3;;;1.9;;
39294;SDS011;52361;52.100;5.248;2023-07-16T02:35:52;4.61;;;1.7;;
39294;SDS011;52361;52.100;5.248;2023-07-16T02:39:05;5.0;;;1.9;;
39294;SDS011;52361;52.100;5.248;2023-07-16T02:40:42;3.9;;;1.6;;
39294;SDS011;52361;52.100;5.248;2023-07-16T02:42:20;11.5;;;2.7;;
39294;SDS011;52361;52.100;5.248;2023-07-16T02:44:00;12.8;;;2.4;;
39294;SDS011;52361;52.100;5.248;2023-07-16T02:47:14;3.8;;;2.0;;
39294;SDS011;52361;52.100;5.248;2023-07-16T02:48:51;6.0;;;2.4;;
39294;SDS011;52361;52.100;5.248;2023-07-16T02:50:28;4.2;;;1.4;;
39294;SDS011;52361;52.100;5.248;2023-07-16T02:53:42;8.31;;;2.31;;
39294;SDS011;52361;52.100;5.248;2023-07-16T02:55:18;5.5;;;1.8;;
39294;SDS011;52361;52.100;5.248;2023-07-16T02:56:56;4.41;;;1.8;;
39294;SDS011;52361;52.100;5.248;2023-07-16T02:58:34;6.0;;;1.7;;
39294;SDS011;52361;52.100;5.248;2023-07-16T03:03:25;7.6;;;1.8;;
39294;SDS011;52361;52.100;5.248;2023-07-16T03:05:02;7.5;;;2.8;;
39294;SDS011;52361;52.100;5.248;2023-07-16T03:08:15;3.1;;;1.8;;
39294;SDS011;52361;52.100;5.248;2023-07-16T03:09:51;6.7;;;2.0;;
39294;SDS011;52361;52.100;5.248;2023-07-16T03:11:28;3.4;;;1.4;;
39294;SDS011;52361;52.100;5.248;2023-07-16T03:14:41;2.0;;;1.4;;
39294;SDS011;52361;52.100;5.248;2023-07-16T03:16:19;5.5;;;1.9;;
39294;SDS011;52361;52.100;5.248;2023-07-16T03:17:56;3.3;;;2.21;;
39294;SDS011;52361;52.100;5.248;2023-07-16T03:19:32;3.2;;;1.8;;
39294;SDS011;52361;52.100;5.248;2023-07-16T03:22:45;4.1;;;1.6;;
39294;SDS011;52361;52.100;5.248;2023-07-16T03:24:23;1.9;;;1.3;;
39294;SDS011;52361;52.100;5.248;2023-07-16T03:25:59;4.61;;;1.4;;
39294;SDS011;52361;52.100;5.248;2023-07-16T03:29:13;4.61;;;1.8;;
39294;SDS011;52361;52.100;5.248;2023-07-16T03:30:51;5.11;;;1.8;;
39294;SDS011;52361;52.100;5.248;2023-07-16T03:32:27;2.9;;;1.4;;
39294;SDS011;52361;52.100;5.248;2023-07-16T03:35:41;3.6;;;1.5;;
39294;SDS011;52361;52.100;5.248;2023-07-16T03:37:18;4.91;;;2.0;;
39294;SDS011;52361;52.100;5.248;2023-07-16T03:38:55;2.7;;;1.5;;
39294;SDS011;52361;52.100;5.248;2023-07-16T03:40:32;2.5;;;1.5;;
39294;SDS011;52361;52.100;5.248;2023-07-16T03:43:45;3.2;;;1.4;;
39294;SDS011;52361;52.100;5.248;2023-07-16T03:45:23;2.6;;;1.7;;
39294;SDS011;52361;52.100;5.248;2023-07-16T03:46:59;4.0;;;1.8;;
39294;SDS011;52361;52.100;5.248;2023-07-16T03:50:12;3.3;;;2.1;;
39294;SDS011;52361;52.100;5.248;2023-07-16T03:51:49;3.8;;;1.9;;
39294;SDS011;52361;52.100;5.248;2023-07-16T03:53:25;6.0;;;1.6;;
39294;SDS011;52361;52.100;5.248;2023-07-16T03:55:02;6.0;;;1.7;;
39294;SDS011;52361;52.100;5.248;2023-07-16T03:58:15;8.0;;;1.8;;
39294;SDS011;52361;52.100;5.248;2023-07-16T03:59:51;5.0;;;1.7;;
39294;SDS011;52361;52.100;5.248;2023-07-16T04:01:28;4.3;;;1.9;;
39294;SDS011;52361;52.100;5.248;2023-07-16T04:04:41;1.7;;;1.6;;
39294;SDS011;52361;52.100;5.248;2023-07-16T04:06:18;3.8;;;2.21;;
39294;SDS011;52361;52.100;5.248;2023-07-16T04:07:54;4.3;;;2.1;;
39294;SDS011;52361;52.100;5.248;2023-07-16T04:11:06;4.0;;;1.8;;
39294;SDS011;52361;52.100;5.248;2023-07-16T04:12:43;2.0;;;1.4;;
39294;SDS011;52361;52.100;5.248;2023-07-16T04:14:20;7.2;;;2.1;;
39294;SDS011;52361;52.100;5.248;2023-07-16T04:15:58;6.6;;;2.1;;
39294;SDS011;52361;52.100;5.248;2023-07-16T04:19:11;6.8;;;2.21;;
39294;SDS011;52361;52.100;5.248;2023-07-16T04:20:48;5.2;;;1.9;;
39294;SDS011;52361;52.100;5.248;2023-07-16T04:22:25;7.0;;;2.1;;
39294;SDS011;52361;52.100;5.248;2023-07-16T04:25:39;4.41;;;2.1;;
39294;SDS011;52361;52.100;5.248;2023-07-16T04:27:16;4.41;;;1.6;;
39294;SDS011;52361;52.100;5.248;2023-07-16T04:28:53;6.3;;;2.21;;
39294;SDS011;52361;52.100;5.248;2023-07-16T04:32:07;5.4;;;2.31;;
39294;SDS011;52361;52.100;5.248;2023-07-16T04:33:44;5.3;;;1.6;;
39294;SDS011;52361;52.100;5.248;2023-07-16T04:35:22;3.1;;;2.0;;
39294;SDS011;52361;52.100;5.248;2023-07-16T04:36:59;3.9;;;2.1;;
39294;SDS011;52361;52.100;5.248;2023-07-16T04:40:11;5.8;;;2.21;;
39294;SDS011;52361;52.100;5.248;2023-07-16T04:41:48;6.2;;;1.9;;
39294;SDS011;52361;52.100;5.248;2023-07-16T04:43:24;5.3;;;2.21;;
39294;SDS011;52361;52.100;5.248;2023-07-16T04:46:38;4.8;;;1.9;;
39294;SDS011;52361;52.100;5.248;2023-07-16T04:48:14;3.6;;;1.9;;
39294;SDS011;52361;52.100;5.248;2023-07-16T04:49:50;4.91;;;2.5;;
39294;SDS011;52361;52.100;5.248;2023-07-16T04:53:04;6.1;;;2.0;;
39294;SDS011;52361;52.100;5.248;2023-07-16T04:54:41;4.1;;;1.6;;
39294;SDS011;52361;52.100;5.248;2023-07-16T04:56:17;4.3;;;1.9;;
39294;SDS011;52361;52.100;5.248;2023-07-16T04:57:54;4.2;;;2.0;;
39294;SDS011;52361;52.100;5.248;2023-07-16T05:01:07;4.41;;;2.4;;
39294;SDS011;52361;52.100;5.248;2023-07-16T05:02:45;5.8;;;2.6;;
39294;SDS011;52361;52.100;5.248;2023-07-16T05:04:21;3.5;;;2.21;;
39294;SDS011;52361;52.100;5.248;2023-07-16T05:07:35;4.41;;;2.0;;
39294;SDS011;52361;52.100;5.248;2023-07-16T05:09:11;4.3;;;2.4;;
39294;SDS011;52361;52.100;5.248;2023-07-16T05:10:48;7.5;;;3.3;;
39294;SDS011;52361;52.100;5.248;2023-07-16T05:12:25;5.11;;;2.4;;
39294;SDS011;52361;52.100;5.248;2023-07-16T05:15:38;3.4;;;1.8;;
39294;SDS011;52361;52.100;5.248;2023-07-16T05:17:15;5.6;;;2.1;;
39294;SDS011;52361;52.100;5.248;2023-07-16T05:18:52;3.0;;;2.21;;
39294;SDS011;52361;52.100;5.248;2023-07-16T05:22:05;3.9;;;1.9;;
39294;SDS011;52361;52.100;5.248;2023-07-16T05:23:42;4.41;;;1.7;;
39294;SDS011;52361;52.100;5.248;2023-07-16T05:25:19;4.5;;;2.1;;
39294;SDS011;52361;52.100;5.248;2023-07-16T05:28:32;6.1;;;2.5;;
39294;SDS011;52361;52.100;5.248;2023-07-16T05:30:09;4.7;;;1.8;;
39294;SDS011;52361;52.100;5.248;2023-07-16T05:31:46;8.5;;;2.7;;
39294;SDS011;52361;52.100;5.248;2023-07-16T05:33:22;7.7;;;2.5;;
39294;SDS011;52361;52.100;5.248;2023-07-16T05:36:34;3.3;;;2.31;;
39294;SDS011;52361;52.100;5.248;2023-07-16T05:38:11;4.61;;;1.8;;
39294;SDS011;52361;52.100;5.248;2023-07-16T05:39:48;4.3;;;2.5;;
39294;SDS011;52361;52.100;5.248;2023-07-16T05:43:01;9.0;;;1.9;;
39294;SDS011;52361;52.100;5.248;2023-07-16T05:44:38;3.8;;;2.0;;
39294;SDS011;52361;52.100;5.248;2023-07-16T05:46:15;4.8;;;2.21;;
39294;SDS011;52361;52.100;5.248;2023-07-16T05:49:29;5.9;;;2.1;;
39294;SDS011;52361;52.100;5.248;2023-07-16T05:51:05;5.8;;;2.8;;
39294;SDS011;52361;52.100;5.248;2023-07-16T05:52:42;3.0;;;1.9;;
39294;SDS011;52361;52.100;5.248;2023-07-16T05:54:18;8.1;;;2.0;;
39294;SDS011;52361;52.100;5.248;2023-07-16T05:57:31;3.0;;;1.8;;
39294;SDS011;52361;52.100;5.248;2023-07-16T05:59:08;6.0;;;2.21;;
39294;SDS011;52361;52.100;5.248;2023-07-16T06:00:44;3.8;;;2.4;;
39294;SDS011;52361;52.100;5.248;2023-07-16T06:03:58;5.3;;;2.1;;
39294;SDS011;52361;52.100;5.248;2023-07-16T06:05:36;5.5;;;2.1;;
39294;SDS011;52361;52.100;5.248;2023-07-16T06:07:13;4.0;;;2.1;;
39294;SDS011;52361;52.100;5.248;2023-07-16T06:10:26;4.8;;;2.5;;
39294;SDS011;52361;52.100;5.248;2023-07-16T06:12:04;5.8;;;2.31;;
39294;SDS011;52361;52.100;5.248;2023-07-16T06:13:40;4.7;;;2.1;;
39294;SDS011;52361;52.100;5.248;2023-07-16T06:15:17;4.3;;;2.21;;
39294;SDS011;52361;52.100;5.248;2023-07-16T06:18:30;6.6;;;2.21;;
39294;SDS011;52361;52.100;5.248;2023-07-16T06:20:07;4.8;;;2.5;;
39294;SDS011;52361;52.100;5.248;2023-07-16T06:21:44;4.2;;;2.6;;
39294;SDS011;52361;52.100;5.248;2023-07-16T06:24:57;4.8;;;2.21;;
39294;SDS011;52361;52.100;5.248;2023-07-16T06:26:33;5.5;;;2.31;;
39294;SDS011;52361;52.100;5.248;2023-07-16T06:28:10;5.11;;;2.4;;
39294;SDS011;52361;52.100;5.248;2023-07-16T06:31:23;2.5;;;1.8;;
39294;SDS011;52361;52.100;5.248;2023-07-16T06:32:59;4.8;;;1.8;;
39294;SDS011;52361;52.100;5.248;2023-07-16T06:34:36;3.1;;;1.8;;
39294;SDS011;52361;52.100;5.248;2023-07-16T06:36:12;6.5;;;2.5;;
39294;SDS011;52361;52.100;5.248;2023-07-16T06:39:25;5.6;;;2.4;;
39294;SDS011;52361;52.100;5.248;2023-07-16T06:41:03;7.5;;;2.1;;
39294;SDS011;52361;52.100;5.248;2023-07-16T06:42:40;8.71;;;3.2;;
39294;SDS011;52361;52.100;5.248;2023-07-16T06:45:53;5.11;;;2.5;;
39294;SDS011;52361;52.100;5.248;2023-07-16T06:47:30;5.7;;;2.31;;
39294;SDS011;52361;52.100;5.248;2023-07-16T06:49:06;6.2;;;2.5;;
39294;SDS011;52361;52.100;5.248;2023-07-16T06:50:44;6.0;;;2.9;;
39294;SDS011;52361;52.100;5.248;2023-07-16T06:53:58;4.7;;;2.4;;
39294;SDS011;52361;52.100;5.248;2023-07-16T06:55:35;4.0;;;2.1;;
39294;SDS011;52361;52.100;5.248;2023-07-16T06:57:13;6.4;;;2.31;;
39294;SDS011;52361;52.100;5.248;2023-07-16T07:00:26;7.4;;;2.1;;
39294;SDS011;52361;52.100;5.248;2023-07-16T07:02:03;4.61;;;2.1;;
39294;SDS011;52361;52.100;5.248;2023-07-16T07:03:41;4.5;;;1.8;;
39294;SDS011;52361;52.100;5.248;2023-07-16T07:06:56;3.4;;;1.9;;
39294;SDS011;52361;52.100;5.248;2023-07-16T07:08:33;4.5;;;2.31;;
39294;SDS011;52361;52.100;5.248;2023-07-16T07:10:09;6.1;;;2.0;;
39294;SDS011;52361;52.100;5.248;2023-07-16T07:11:47;7.7;;;2.7;;
39294;SDS011;52361;52.100;5.248;2023-07-16T07:15:00;4.41;;;2.21;;
39294;SDS011;52361;52.100;5.248;2023-07-16T07:16:37;6.6;;;2.4;;
39294;SDS011;52361;52.100;5.248;2023-07-16T07:18:13;5.7;;;3.1;;
39294;SDS011;52361;52.100;5.248;2023-07-16T07:21:25;6.5;;;2.7;;
39294;SDS011;52361;52.100;5.248;2023-07-16T07:24:39;4.5;;;1.8;;
39294;SDS011;52361;52.100;5.248;2023-07-16T07:27:51;4.1;;;2.1;;
39294;SDS011;52361;52.100;5.248;2023-07-16T07:31:04;4.3;;;2.9;;
39294;SDS011;52361;52.100;5.248;2023-07-16T07:32:41;3.2;;;2.0;;
39294;SDS011;52361;52.100;5.248;2023-07-16T07:35:53;4.41;;;1.9;;
39294;SDS011;52361;52.100;5.248;2023-07-16T07:37:29;3.4;;;2.21;;
39294;SDS011;52361;52.100;5.248;2023-07-16T07:39:07;11.2;;;2.7;;
39294;SDS011;52361;52.100;5.248;2023-07-16T07:42:20;5.2;;;2.5;;
39294;SDS011;52361;52.100;5.248;2023-07-16T07:43:56;3.5;;;2.31;;
39294;SDS011;52361;52.100;5.248;2023-07-16T07:45:33;5.4;;;2.9;;
39294;SDS011;52361;52.100;5.248;2023-07-16T07:48:46;7.4;;;2.4;;
39294;SDS011;52361;52.100;5.248;2023-07-16T07:50:22;8.2;;;2.9;;
39294;SDS011;52361;52.100;5.248;2023-07-16T07:51:59;8.1;;;3.0;;
39294;SDS011;52361;52.100;5.248;2023-07-16T07:53:35;4.3;;;2.21;;
39294;SDS011;52361;52.100;5.248;2023-07-16T07:56:48;8.0;;;2.1;;
39294;SDS011;52361;52.100;5.248;2023-07-16T07:58:25;8.2;;;2.9;;
39294;SDS011;52361;52.100;5.248;2023-07-16T08:00:01;6.0;;;3.2;;
39294;SDS011;52361;52.100;5.248;2023-07-16T08:03:15;7.8;;;2.9;;
39294;SDS011;52361;52.100;5.248;2023-07-16T08:04:53;3.9;;;2.0;;
39294;SDS011;52361;52.100;5.248;2023-07-16T08:06:31;8.0;;;3.1;;
39294;SDS011;52361;52.100;5.248;2023-07-16T08:08:08;5.3;;;2.21;;
39294;SDS011;52361;52.100;5.248;2023-07-16T08:11:22;5.5;;;3.2;;
39294;SDS011;52361;52.100;5.248;2023-07-16T08:12:59;3.4;;;2.7;;
39294;SDS011;52361;52.100;5.248;2023-07-16T08:14:36;3.8;;;2.4;;
39294;SDS011;52361;52.100;5.248;2023-07-16T08:17:51;9.21;;;3.5;;
39294;SDS011;52361;52.100;5.248;2023-07-16T08:19:27;5.8;;;2.4;;
39294;SDS011;52361;52.100;5.248;2023-07-16T08:21:04;7.0;;;2.8;;
39294;SDS011;52361;52.100;5.248;2023-07-16T08:24:17;9.31;;;2.7;;
39294;SDS011;52361;52.100;5.248;2023-07-16T08:25:53;9.31;;;3.3;;
39294;SDS011;52361;52.100;5.248;2023-07-16T08:27:30;6.5;;;2.4;;
39294;SDS011;52361;52.100;5.248;2023-07-16T08:29:07;6.4;;;2.5;;
39294;SDS011;52361;52.100;5.248;2023-07-16T08:32:22;5.2;;;2.6;;
39294;SDS011;52361;52.100;5.248;2023-07-16T08:33:59;4.41;;;2.21;;
39294;SDS011;52361;52.100;5.248;2023-07-16T08:35:35;3.0;;;2.21;;
39294;SDS011;52361;52.100;5.248;2023-07-16T08:38:49;6.3;;;2.8;;
39294;SDS011;52361;52.100;5.248;2023-07-16T08:40:26;6.8;;;2.6;;
39294;SDS011;52361;52.100;5.248;2023-07-16T08:42:02;4.61;;;2.9;;
39294;SDS011;52361;52.100;5.248;2023-07-16T08:45:18;6.8;;;3.1;;
39294;SDS011;52361;52.100;5.248;2023-07-16T08:46:57;6.8;;;2.7;;
39294;SDS011;52361;52.100;5.248;2023-07-16T08:48:33;6.8;;;2.7;;
39294;SDS011;52361;52.100;5.248;2023-07-16T08:50:11;5.11;;;2.6;;
39294;SDS011;52361;52.100;5.248;2023-07-16T08:53:25;4.91;;;2.5;;
39294;SDS011;52361;52.100;5.248;2023-07-16T08:55:02;7.1;;;2.8;;
39294;SDS011;52361;52.100;5.248;2023-07-16T08:56:39;3.6;;;2.5;;
39294;SDS011;52361;52.100;5.248;2023-07-16T08:59:55;7.1;;;3.1;;
39294;SDS011;52361;52.100;5.248;2023-07-16T09:01:32;5.11;;;2.7;;
39294;SDS011;52361;52.100;5.248;2023-07-16T09:03:10;4.2;;;2.31;;
39294;SDS011;52361;52.100;5.248;2023-07-16T09:04:48;5.3;;;3.0;;
39294;SDS011;52361;52.100;5.248;2023-07-16T09:08:03;4.3;;;2.7;;
39294;SDS011;52361;52.100;5.248;2023-07-16T09:09:40;5.3;;;2.6;;
39294;SDS011;52361;52.100;5.248;2023-07-16T09:11:17;5.11;;;2.7;;
39294;SDS011;52361;52.100;5.248;2023-07-16T09:14:34;7.7;;;3.2;;
39294;SDS011;52361;52.100;5.248;2023-07-16T09:16:10;5.5;;;2.6;;
39294;SDS011;52361;52.100;5.248;2023-07-16T09:17:47;4.41;;;2.31;;
39294;SDS011;52361;52.100;5.248;2023-07-16T09:19:25;6.3;;;3.0;;
39294;SDS011;52361;52.100;5.248;2023-07-16T09:22:38;5.11;;;3.7;;
39294;SDS011;52361;52.100;5.248;2023-07-16T09:24:14;5.6;;;2.4;;
39294;SDS011;52361;52.100;5.248;2023-07-16T09:25:51;5.2;;;2.4;;
39294;SDS011;52361;52.100;5.248;2023-07-16T09:29:07;11.8;;;3.4;;
39294;SDS011;52361;52.100;5.248;2023-07-16T09:30:43;8.1;;;3.4;;
39294;SDS011;52361;52.100;5.248;2023-07-16T09:32:20;5.11;;;2.1;;
39294;SDS011;52361;52.100;5.248;2023-07-16T09:33:57;6.4;;;3.0;;
39294;SDS011;52361;52.100;5.248;2023-07-16T09:37:12;6.8;;;2.5;;
39294;SDS011;52361;52.100;5.248;2023-07-16T09:38:48;2.4;;;1.7;;
39294;SDS011;52361;52.100;5.248;2023-07-16T09:40:26;5.0;;;2.6;;
39294;SDS011;52361;52.100;5.248;2023-07-16T09:43:42;7.2;;;2.7;;
39294;SDS011;52361;52.100;5.248;2023-07-16T09:45:19;4.8;;;2.6;;
39294;SDS011;52361;52.100;5.248;2023-07-16T09:46:56;6.2;;;2.6;;
39294;SDS011;52361;52.100;5.248;2023-07-16T09:50:11;6.5;;;2.4;;
39294;SDS011;52361;52.100;5.248;2023-07-16T09:51:48;3.9;;;2.21;;
39294;SDS011;52361;52.100;5.248;2023-07-16T09:53:27;6.5;;;2.7;;
39294;SDS011;52361;52.100;5.248;2023-07-16T09:55:09;7.9;;;2.9;;
39294;SDS011;52361;52.100;5.248;2023-07-16T09:58:26;3.5;;;2.31;;
39294;SDS011;52361;52.100;5.248;2023-07-16T10:00:05;8.0;;;2.8;;
39294;SDS011;52361;52.100;5.248;2023-07-16T10:01:45;6.0;;;2.6;;
39294;SDS011;52361;52.100;5.248;2023-07-16T10:03:22;4.61;;;2.9;;
39294;SDS011;52361;52.100;5.248;2023-07-16T10:06:48;6.1;;;3.3;;
39294;SDS011;52361;52.100;5.248;2023-07-16T10:08:33;5.0;;;2.5;;
39294;SDS011;52361;52.100;5.248;2023-07-16T10:10:10;8.9;;;4.8;;
39294;SDS011;52361;52.100;5.248;2023-07-16T10:11:47;4.7;;;2.4;;
39294;SDS011;52361;52.100;5.248;2023-07-16T10:15:01;5.5;;;2.6;;
39294;SDS011;52361;52.100;5.248;2023-07-16T10:16:38;6.4;;;3.1;;
39294;SDS011;52361;52.100;5.248;2023-07-16T10:18:22;5.3;;;2.5;;
39294;SDS011;52361;52.100;5.248;2023-07-16T10:20:00;4.91;;;2.8;;
39294;SDS011;52361;52.100;5.248;2023-07-16T10:23:15;5.11;;;3.0;;
39294;SDS011;52361;52.100;5.248;2023-07-16T10:24:52;4.91;;;2.8;;
39294;SDS011;52361;52.100;5.248;2023-07-16T10:26:29;5.0;;;2.8;;
39294;SDS011;52361;52.100;5.248;2023-07-16T10:29:45;3.8;;;2.1;;
39294;SDS011;52361;52.100;5.248;2023-07-16T10:31:22;6.5;;;2.4;;
39294;SDS011;52361;52.100;5.248;2023-07-16T10:33:02;4.8;;;2.21;;
39294;SDS011;52361;52.100;5.248;2023-07-16T10:34:39;7.1;;;3.4;;
39294;SDS011;52361;52.100;5.248;2023-07-16T10:37:55;4.0;;;2.0;;
39294;SDS011;52361;52.100;5.248;2023-07-16T10:39:32;5.3;;;2.5;;
39294;SDS011;52361;52.100;5.248;2023-07-16T10:41:08;4.7;;;2.7;;
39294;SDS011;52361;52.100;5.248;2023-07-16T10:44:22;5.7;;;2.4;;
39294;SDS011;52361;52.100;5.248;2023-07-16T10:45:58;5.6;;;2.4;;
39294;SDS011;52361;52.100;5.248;2023-07-16T10:47:35;10.21;;;3.4;;
39294;SDS011;52361;52.100;5.248;2023-07-16T10:50:52;5.5;;;2.31;;
39294;SDS011;52361;52.100;5.248;2023-07-16T10:52:29;4.5;;;2.7;;
39294;SDS011;52361;52.100;5.248;2023-07-16T10:54:06;5.0;;;2.8;;
39294;SDS011;52361;52.100;5.248;2023-07-16T10:55:42;7.2;;;2.8;;
39294;SDS011;52361;52.100;5.248;2023-07-16T10:58:56;5.3;;;2.31;;
39294;SDS011;52361;52.100;5.248;2023-07-16T11:00:36;3.7;;;2.21;;
39294;SDS011;52361;52.100;5.248;2023-07-16T11:02:15;5.6;;;1.9;;
39294;SDS011;52361;52.100;5.248;2023-07-16T11:03:52;2.21;;;1.5;;
39294;SDS011;52361;52.100;5.248;2023-07-16T11:07:05;4.91;;;1.9;;
39294;SDS011;52361;52.100;5.248;2023-07-16T11:08:43;3.2;;;1.8;;
39294;SDS011;52361;52.100;5.248;2023-07-16T11:10:20;5.6;;;2.21;;
39294;SDS011;52361;52.100;5.248;2023-07-16T11:13:41;3.2;;;1.8;;
39294;SDS011;52361;52.100;5.248;2023-07-16T11:15:29;3.5;;;2.1;;
39294;SDS011;52361;52.100;5.248;2023-07-16T11:17:07;3.7;;;2.0;;
39294;SDS011;52361;52.100;5.248;2023-07-16T11:18:44;4.3;;;3.0;;
39294;SDS011;52361;52.100;5.248;2023-07-16T11:21:59;3.2;;;1.9;;
39294;SDS011;52361;52.100;5.248;2023-07-16T11:23:36;2.4;;;1.6;;
39294;SDS011;52361;52.100;5.248;2023-07-16T11:25:12;2.7;;;2.0;;
39294;SDS011;52361;52.100;5.248;2023-07-16T11:28:35;4.3;;;1.6;;
39294;SDS011;52361;52.100;5.248;2023-07-16T11:30:12;4.3;;;1.6;;
39294;SDS011;52361;52.100;5.248;2023-07-16T11:31:49;4.41;;;1.8;;
39294;SDS011;52361;52.100;5.248;2023-07-16T11:33:34;2.9;;;2.0;;
39294;SDS011;52361;52.100;5.248;2023-07-16T11:36:54;4.3;;;2.4;;
39294;SDS011;52361;52.100;5.248;2023-07-16T11:38:42;4.0;;;2.1;;
39294;SDS011;52361;52.100;5.248;2023-07-16T11:40:19;3.8;;;2.21;;
39294;SDS011;52361;52.100;5.248;2023-07-16T11:41:56;2.0;;;1.8;;
39294;SDS011;52361;52.100;5.248;2023-07-16T11:45:18;1.8;;;1.11;;
39294;SDS011;52361;52.100;5.248;2023-07-16T11:46:58;3.0;;;1.5;;
39294;SDS011;52361;52.100;5.248;2023-07-16T11:48:34;4.0;;;1.7;;
39294;SDS011;52361;52.100;5.248;2023-07-16T11:50:10;3.0;;;1.4;;
39294;SDS011;52361;52.100;5.248;2023-07-16T11:53:24;5.3;;;1.9;;
39294;SDS011;52361;52.100;5.248;2023-07-16T11:55:00;1.4;;;1.11;;
39294;SDS011;52361;52.100;5.248;2023-07-16T11:56:36;1.9;;;1.2;;
39294;SDS011;52361;52.100;5.248;2023-07-16T11:59:49;3.4;;;1.3;;
39294;SDS011;52361;52.100;5.248;2023-07-16T12:01:25;2.6;;;1.6;;
39294;SDS011;52361;52.100;5.248;2023-07-16T12:03:02;3.5;;;1.6;;
39294;SDS011;52361;52.100;5.248;2023-07-16T12:04:40;3.2;;;1.11;;
39294;SDS011;52361;52.100;5.248;2023-07-16T12:07:53;2.0;;;1.2;;
39294;SDS011;52361;52.100;5.248;2023-07-16T12:09:30;1.7;;;0.7;;
39294;SDS011;52361;52.100;5.248;2023-07-16T12:11:06;3.3;;;1.11;;
39294;SDS011;52361;52.100;5.248;2023-07-16T12:14:19;1.8;;;1.0;;
39294;SDS011;52361;52.100;5.248;2023-07-16T12:15:56;2.6;;;1.11;;
39294;SDS011;52361;52.100;5.248;2023-07-16T12:17:33;1.9;;;1.2;;
39294;SDS011;52361;52.100;5.248;2023-07-16T12:20:47;2.1;;;1.0;;
39294;SDS011;52361;52.100;5.248;2023-07-16T12:22:24;2.0;;;1.0;;
39294;SDS011;52361;52.100;5.248;2023-07-16T12:24:01;2.8;;;1.0;;
39294;SDS011;52361;52.100;5.248;2023-07-16T12:25:38;2.31;;;1.2;;
39294;SDS011;52361;52.100;5.248;2023-07-16T12:28:54;4.7;;;1.4;;
39294;SDS011;52361;52.100;5.248;2023-07-16T12:30:30;2.4;;;0.9;;
39294;SDS011;52361;52.100;5.248;2023-07-16T12:32:06;2.31;;;1.11;;
39294;SDS011;52361;52.100;5.248;2023-07-16T12:35:20;2.7;;;1.0;;
39294;SDS011;52361;52.100;5.248;2023-07-16T12:36:58;4.5;;;0.9;;
39294;SDS011;52361;52.100;5.248;2023-07-16T12:38:35;3.0;;;1.2;;
39294;SDS011;52361;52.100;5.248;2023-07-16T12:40:11;2.1;;;1.4;;
39294;SDS011;52361;52.100;5.248;2023-07-16T12:43:25;2.4;;;1.3;;
39294;SDS011;52361;52.100;5.248;2023-07-16T12:45:03;1.4;;;0.8;;
39294;SDS011;52361;52.100;5.248;2023-07-16T12:46:40;3.3;;;1.11;;
39294;SDS011;52361;52.100;5.248;2023-07-16T12:49:53;4.91;;;1.5;;
39294;SDS011;52361;52.100;5.248;2023-07-16T12:51:31;3.7;;;0.9;;
39294;SDS011;52361;52.100;5.248;2023-07-16T12:53:08;2.1;;;1.0;;
39294;SDS011;52361;52.100;5.248;2023-07-16T12:54:44;2.6;;;1.4;;
39294;SDS011;52361;52.100;5.248;2023-07-16T12:57:57;2.1;;;0.9;;
39294;SDS011;52361;52.100;5.248;2023-07-16T12:59:33;3.2;;;1.2;;
39294;SDS011;52361;52.100;5.248;2023-07-16T13:01:10;4.2;;;0.8;;
39294;SDS011;52361;52.100;5.248;2023-07-16T13:06:00;1.0;;;0.6;;